Terminal Aerodrome Forecast
Issued by NWS Sterling, VA

Home | Current Version | Previous Version | Text Only | Print | Product List | Glossary On
Versions: 1 2 3 4 5 6 7 8 9 10 11 12 13
200
FTUS41 KLWX 291139
TAFCHO
TAF
KCHO 291139Z 2912/3012 VRB04KT P6SM BKN200
     FM291900 11004KT 6SM -SHRA VCTS OVC050CB
     FM300000 VRB03KT 3SM -SHRA BR OVC040=

USA.gov is the U.S. government's official web portal to all federal, state and local government web resources and services.